sensor_id;sensor_type;location;lat;lon;timestamp;P1;durP1;ratioP1;P2;durP2;ratioP2
49502;SDS011;35409;48.776;9.204;2022-07-23T00:01:17;4.97;;;4.57;;
49502;SDS011;35409;48.776;9.204;2022-07-23T00:03:43;5.35;;;4.85;;
49502;SDS011;35409;48.776;9.204;2022-07-23T00:06:09;4.90;;;4.45;;
49502;SDS011;35409;48.776;9.204;2022-07-23T00:08:34;6.70;;;4.88;;
49502;SDS011;35409;48.776;9.204;2022-07-23T00:11:00;6.40;;;4.68;;
49502;SDS011;35409;48.776;9.204;2022-07-23T00:13:26;4.82;;;4.15;;
49502;SDS011;35409;48.776;9.204;2022-07-23T00:15:52;7.55;;;4.72;;
49502;SDS011;35409;48.776;9.204;2022-07-23T00:18:18;7.97;;;4.38;;
49502;SDS011;35409;48.776;9.204;2022-07-23T00:20:44;6.53;;;4.63;;
49502;SDS011;35409;48.776;9.204;2022-07-23T00:23:10;4.93;;;4.38;;
49502;SDS011;35409;48.776;9.204;2022-07-23T00:25:35;6.40;;;4.28;;
49502;SDS011;35409;48.776;9.204;2022-07-23T00:28:01;5.47;;;3.70;;
49502;SDS011;35409;48.776;9.204;2022-07-23T00:30:28;4.50;;;4.10;;
49502;SDS011;35409;48.776;9.204;2022-07-23T00:32:56;4.30;;;3.90;;
49502;SDS011;35409;48.776;9.204;2022-07-23T00:35:27;5.30;;;4.13;;
49502;SDS011;35409;48.776;9.204;2022-07-23T00:37:54;3.78;;;3.47;;
49502;SDS011;35409;48.776;9.204;2022-07-23T00:40:20;5.97;;;3.67;;
49502;SDS011;35409;48.776;9.204;2022-07-23T00:42:46;4.28;;;3.88;;
49502;SDS011;35409;48.776;9.204;2022-07-23T00:45:14;6.75;;;3.97;;
49502;SDS011;35409;48.776;9.204;2022-07-23T00:47:40;7.63;;;4.40;;
49502;SDS011;35409;48.776;9.204;2022-07-23T00:50:07;5.35;;;3.92;;
49502;SDS011;35409;48.776;9.204;2022-07-23T00:52:34;3.95;;;3.65;;
49502;SDS011;35409;48.776;9.204;2022-07-23T00:55:00;4.32;;;3.92;;
49502;SDS011;35409;48.776;9.204;2022-07-23T00:57:26;5.70;;;3.88;;
49502;SDS011;35409;48.776;9.204;2022-07-23T00:59:52;5.45;;;4.57;;
49502;SDS011;35409;48.776;9.204;2022-07-23T01:02:17;5.30;;;4.00;;
49502;SDS011;35409;48.776;9.204;2022-07-23T01:04:43;4.20;;;3.80;;
49502;SDS011;35409;48.776;9.204;2022-07-23T01:07:09;4.40;;;4.00;;
49502;SDS011;35409;48.776;9.204;2022-07-23T01:09:35;5.05;;;4.55;;
49502;SDS011;35409;48.776;9.204;2022-07-23T01:12:01;4.55;;;3.70;;
49502;SDS011;35409;48.776;9.204;2022-07-23T01:14:28;5.30;;;4.32;;
49502;SDS011;35409;48.776;9.204;2022-07-23T01:16:53;4.35;;;3.95;;
49502;SDS011;35409;48.776;9.204;2022-07-23T01:19:19;4.75;;;4.28;;
49502;SDS011;35409;48.776;9.204;2022-07-23T01:21:50;3.85;;;3.55;;
49502;SDS011;35409;48.776;9.204;2022-07-23T01:24:16;4.30;;;3.72;;
49502;SDS011;35409;48.776;9.204;2022-07-23T01:26:45;4.40;;;4.00;;
49502;SDS011;35409;48.776;9.204;2022-07-23T01:29:11;4.88;;;4.07;;
49502;SDS011;35409;48.776;9.204;2022-07-23T01:31:38;5.30;;;4.18;;
49502;SDS011;35409;48.776;9.204;2022-07-23T01:34:04;5.75;;;4.32;;
49502;SDS011;35409;48.776;9.204;2022-07-23T01:36:31;4.45;;;4.03;;
49502;SDS011;35409;48.776;9.204;2022-07-23T01:39:02;4.23;;;3.63;;
49502;SDS011;35409;48.776;9.204;2022-07-23T01:41:28;4.80;;;4.40;;
49502;SDS011;35409;48.776;9.204;2022-07-23T01:43:54;4.78;;;4.03;;
49502;SDS011;35409;48.776;9.204;2022-07-23T01:46:20;4.45;;;4.05;;
49502;SDS011;35409;48.776;9.204;2022-07-23T01:48:46;4.40;;;4.00;;
49502;SDS011;35409;48.776;9.204;2022-07-23T01:51:12;5.53;;;4.22;;
49502;SDS011;35409;48.776;9.204;2022-07-23T01:53:37;4.60;;;4.20;;
49502;SDS011;35409;48.776;9.204;2022-07-23T01:56:03;6.07;;;4.68;;
49502;SDS011;35409;48.776;9.204;2022-07-23T01:58:29;6.07;;;3.92;;
49502;SDS011;35409;48.776;9.204;2022-07-23T02:00:55;6.97;;;4.20;;
49502;SDS011;35409;48.776;9.204;2022-07-23T02:03:21;4.72;;;4.13;;
49502;SDS011;35409;48.776;9.204;2022-07-23T02:05:47;4.38;;;3.85;;
49502;SDS011;35409;48.776;9.204;2022-07-23T02:08:13;8.20;;;4.00;;
49502;SDS011;35409;48.776;9.204;2022-07-23T02:10:39;4.93;;;4.30;;
49502;SDS011;35409;48.776;9.204;2022-07-23T02:13:04;5.05;;;4.50;;
49502;SDS011;35409;48.776;9.204;2022-07-23T02:15:30;4.15;;;3.75;;
49502;SDS011;35409;48.776;9.204;2022-07-23T02:17:56;6.40;;;4.13;;
49502;SDS011;35409;48.776;9.204;2022-07-23T02:20:21;5.13;;;4.63;;
49502;SDS011;35409;48.776;9.204;2022-07-23T02:22:47;4.57;;;4.18;;
49502;SDS011;35409;48.776;9.204;2022-07-23T02:25:13;5.68;;;4.55;;
49502;SDS011;35409;48.776;9.204;2022-07-23T02:27:39;4.43;;;4.03;;
49502;SDS011;35409;48.776;9.204;2022-07-23T02:30:05;4.30;;;3.83;;
49502;SDS011;35409;48.776;9.204;2022-07-23T02:32:31;4.13;;;3.80;;
49502;SDS011;35409;48.776;9.204;2022-07-23T02:34:57;5.28;;;4.10;;
49502;SDS011;35409;48.776;9.204;2022-07-23T02:37:22;6.13;;;4.95;;
49502;SDS011;35409;48.776;9.204;2022-07-23T02:39:49;4.85;;;4.30;;
49502;SDS011;35409;48.776;9.204;2022-07-23T02:42:15;5.60;;;4.97;;
49502;SDS011;35409;48.776;9.204;2022-07-23T02:44:41;4.97;;;4.28;;
49502;SDS011;35409;48.776;9.204;2022-07-23T02:47:07;5.57;;;4.60;;
49502;SDS011;35409;48.776;9.204;2022-07-23T02:49:32;4.32;;;4.00;;
49502;SDS011;35409;48.776;9.204;2022-07-23T02:51:58;4.22;;;3.92;;
49502;SDS011;35409;48.776;9.204;2022-07-23T02:54:24;6.13;;;4.15;;
49502;SDS011;35409;48.776;9.204;2022-07-23T02:56:50;5.82;;;4.32;;
49502;SDS011;35409;48.776;9.204;2022-07-23T02:59:16;5.03;;;4.30;;
49502;SDS011;35409;48.776;9.204;2022-07-23T03:01:42;4.90;;;4.20;;
49502;SDS011;35409;48.776;9.204;2022-07-23T03:04:08;4.53;;;4.20;;
49502;SDS011;35409;48.776;9.204;2022-07-23T03:06:34;5.07;;;4.50;;
49502;SDS011;35409;48.776;9.204;2022-07-23T03:08:59;6.07;;;4.45;;
49502;SDS011;35409;48.776;9.204;2022-07-23T03:11:25;5.13;;;4.55;;
49502;SDS011;35409;48.776;9.204;2022-07-23T03:13:51;4.53;;;4.13;;
49502;SDS011;35409;48.776;9.204;2022-07-23T03:16:16;5.05;;;4.20;;
49502;SDS011;35409;48.776;9.204;2022-07-23T03:18:42;4.97;;;4.50;;
49502;SDS011;35409;48.776;9.204;2022-07-23T03:21:07;5.75;;;4.10;;
49502;SDS011;35409;48.776;9.204;2022-07-23T03:23:33;5.03;;;4.50;;
49502;SDS011;35409;48.776;9.204;2022-07-23T03:25:59;5.25;;;4.47;;
49502;SDS011;35409;48.776;9.204;2022-07-23T03:28:25;5.40;;;4.50;;
49502;SDS011;35409;48.776;9.204;2022-07-23T03:30:50;5.07;;;4.57;;
49502;SDS011;35409;48.776;9.204;2022-07-23T03:33:17;6.30;;;4.97;;
49502;SDS011;35409;48.776;9.204;2022-07-23T03:35:44;4.88;;;4.47;;
49502;SDS011;35409;48.776;9.204;2022-07-23T03:38:11;5.13;;;4.35;;
49502;SDS011;35409;48.776;9.204;2022-07-23T03:40:37;5.07;;;4.57;;
49502;SDS011;35409;48.776;9.204;2022-07-23T03:43:03;5.28;;;4.78;;
49502;SDS011;35409;48.776;9.204;2022-07-23T03:45:28;8.60;;;4.53;;
49502;SDS011;35409;48.776;9.204;2022-07-23T03:47:54;5.15;;;4.65;;
49502;SDS011;35409;48.776;9.204;2022-07-23T03:50:20;5.40;;;4.90;;
49502;SDS011;35409;48.776;9.204;2022-07-23T03:52:46;7.90;;;5.25;;
49502;SDS011;35409;48.776;9.204;2022-07-23T03:55:11;5.25;;;4.75;;
49502;SDS011;35409;48.776;9.204;2022-07-23T03:57:37;5.50;;;5.05;;
49502;SDS011;35409;48.776;9.204;2022-07-23T04:00:04;5.93;;;5.10;;
49502;SDS011;35409;48.776;9.204;2022-07-23T04:02:31;5.03;;;4.57;;
49502;SDS011;35409;48.776;9.204;2022-07-23T04:04:57;5.43;;;4.93;;
49502;SDS011;35409;48.776;9.204;2022-07-23T04:07:23;6.22;;;5.13;;
49502;SDS011;35409;48.776;9.204;2022-07-23T04:09:48;5.97;;;5.38;;
49502;SDS011;35409;48.776;9.204;2022-07-23T04:12:14;7.20;;;5.88;;
49502;SDS011;35409;48.776;9.204;2022-07-23T04:14:40;6.00;;;5.47;;
49502;SDS011;35409;48.776;9.204;2022-07-23T04:17:06;7.38;;;6.05;;
49502;SDS011;35409;48.776;9.204;2022-07-23T04:19:31;7.05;;;5.70;;
49502;SDS011;35409;48.776;9.204;2022-07-23T04:21:57;6.55;;;5.65;;
49502;SDS011;35409;48.776;9.204;2022-07-23T04:24:23;6.22;;;5.38;;
49502;SDS011;35409;48.776;9.204;2022-07-23T04:26:48;6.32;;;5.30;;
49502;SDS011;35409;48.776;9.204;2022-07-23T04:29:14;6.63;;;5.63;;
49502;SDS011;35409;48.776;9.204;2022-07-23T04:31:39;6.85;;;4.65;;
49502;SDS011;35409;48.776;9.204;2022-07-23T04:34:05;5.63;;;4.78;;
49502;SDS011;35409;48.776;9.204;2022-07-23T04:36:31;8.20;;;5.07;;
49502;SDS011;35409;48.776;9.204;2022-07-23T04:38:56;5.32;;;4.75;;
49502;SDS011;35409;48.776;9.204;2022-07-23T04:41:22;5.25;;;4.68;;
49502;SDS011;35409;48.776;9.204;2022-07-23T04:43:48;5.78;;;4.75;;
49502;SDS011;35409;48.776;9.204;2022-07-23T04:46:13;5.40;;;4.90;;
49502;SDS011;35409;48.776;9.204;2022-07-23T04:48:39;8.48;;;4.88;;
49502;SDS011;35409;48.776;9.204;2022-07-23T04:51:05;4.85;;;4.38;;
49502;SDS011;35409;48.776;9.204;2022-07-23T04:53:30;5.32;;;4.82;;
49502;SDS011;35409;48.776;9.204;2022-07-23T04:55:56;7.00;;;4.80;;
49502;SDS011;35409;48.776;9.204;2022-07-23T04:58:22;7.25;;;4.38;;
49502;SDS011;35409;48.776;9.204;2022-07-23T05:00:48;4.97;;;4.47;;
49502;SDS011;35409;48.776;9.204;2022-07-23T05:03:13;6.07;;;4.80;;
49502;SDS011;35409;48.776;9.204;2022-07-23T05:05:39;5.22;;;4.57;;
49502;SDS011;35409;48.776;9.204;2022-07-23T05:08:05;5.47;;;4.97;;
49502;SDS011;35409;48.776;9.204;2022-07-23T05:10:31;5.07;;;4.57;;
49502;SDS011;35409;48.776;9.204;2022-07-23T05:12:56;4.93;;;4.53;;
49502;SDS011;35409;48.776;9.204;2022-07-23T05:15:23;4.80;;;4.30;;
49502;SDS011;35409;48.776;9.204;2022-07-23T05:17:49;4.75;;;4.35;;
49502;SDS011;35409;48.776;9.204;2022-07-23T05:20:14;6.90;;;4.68;;
49502;SDS011;35409;48.776;9.204;2022-07-23T05:22:40;4.85;;;4.32;;
49502;SDS011;35409;48.776;9.204;2022-07-23T05:25:06;5.57;;;4.90;;
49502;SDS011;35409;48.776;9.204;2022-07-23T05:27:32;5.22;;;4.68;;
49502;SDS011;35409;48.776;9.204;2022-07-23T05:29:57;5.80;;;5.07;;
49502;SDS011;35409;48.776;9.204;2022-07-23T05:32:23;6.78;;;4.80;;
49502;SDS011;35409;48.776;9.204;2022-07-23T05:34:49;4.93;;;4.53;;
49502;SDS011;35409;48.776;9.204;2022-07-23T05:37:15;5.82;;;4.93;;
49502;SDS011;35409;48.776;9.204;2022-07-23T05:39:41;7.55;;;4.85;;
49502;SDS011;35409;48.776;9.204;2022-07-23T05:42:06;6.35;;;5.57;;
49502;SDS011;35409;48.776;9.204;2022-07-23T05:44:32;8.25;;;5.03;;
49502;SDS011;35409;48.776;9.204;2022-07-23T05:46:58;7.57;;;5.25;;
49502;SDS011;35409;48.776;9.204;2022-07-23T05:49:24;5.38;;;4.88;;
49502;SDS011;35409;48.776;9.204;2022-07-23T05:51:49;6.57;;;5.40;;
49502;SDS011;35409;48.776;9.204;2022-07-23T05:54:15;6.38;;;5.03;;
49502;SDS011;35409;48.776;9.204;2022-07-23T05:56:41;5.43;;;4.95;;
49502;SDS011;35409;48.776;9.204;2022-07-23T05:59:06;8.85;;;5.28;;
49502;SDS011;35409;48.776;9.204;2022-07-23T06:01:32;6.22;;;4.60;;
49502;SDS011;35409;48.776;9.204;2022-07-23T06:03:58;5.60;;;4.78;;
49502;SDS011;35409;48.776;9.204;2022-07-23T06:06:23;5.90;;;5.30;;
49502;SDS011;35409;48.776;9.204;2022-07-23T06:08:49;5.85;;;5.25;;
49502;SDS011;35409;48.776;9.204;2022-07-23T06:11:14;5.30;;;4.80;;
49502;SDS011;35409;48.776;9.204;2022-07-23T06:13:40;5.45;;;4.80;;
49502;SDS011;35409;48.776;9.204;2022-07-23T06:16:07;5.97;;;5.05;;
49502;SDS011;35409;48.776;9.204;2022-07-23T06:18:32;6.55;;;5.20;;
49502;SDS011;35409;48.776;9.204;2022-07-23T06:20:58;5.63;;;4.97;;
49502;SDS011;35409;48.776;9.204;2022-07-23T06:23:24;5.43;;;4.93;;
49502;SDS011;35409;48.776;9.204;2022-07-23T06:25:49;5.78;;;4.95;;
49502;SDS011;35409;48.776;9.204;2022-07-23T06:28:15;9.75;;;5.57;;
49502;SDS011;35409;48.776;9.204;2022-07-23T06:30:41;6.47;;;5.18;;
49502;SDS011;35409;48.776;9.204;2022-07-23T06:33:06;6.50;;;5.65;;
49502;SDS011;35409;48.776;9.204;2022-07-23T06:35:32;7.47;;;5.35;;
49502;SDS011;35409;48.776;9.204;2022-07-23T06:37:58;6.53;;;5.93;;
49502;SDS011;35409;48.776;9.204;2022-07-23T06:40:24;6.65;;;5.72;;
49502;SDS011;35409;48.776;9.204;2022-07-23T06:42:50;6.75;;;5.15;;
49502;SDS011;35409;48.776;9.204;2022-07-23T06:45:16;5.93;;;5.32;;
49502;SDS011;35409;48.776;9.204;2022-07-23T06:47:42;5.45;;;4.95;;
49502;SDS011;35409;48.776;9.204;2022-07-23T06:50:07;6.47;;;5.88;;
49502;SDS011;35409;48.776;9.204;2022-07-23T06:52:33;5.82;;;5.00;;
49502;SDS011;35409;48.776;9.204;2022-07-23T06:54:59;7.07;;;5.30;;
49502;SDS011;35409;48.776;9.204;2022-07-23T06:57:25;5.35;;;4.82;;
49502;SDS011;35409;48.776;9.204;2022-07-23T06:59:51;5.47;;;4.97;;
49502;SDS011;35409;48.776;9.204;2022-07-23T07:02:16;5.78;;;5.18;;
49502;SDS011;35409;48.776;9.204;2022-07-23T07:04:42;8.00;;;5.28;;
49502;SDS011;35409;48.776;9.204;2022-07-23T07:07:08;8.07;;;5.47;;
49502;SDS011;35409;48.776;9.204;2022-07-23T07:09:33;7.57;;;5.53;;
49502;SDS011;35409;48.776;9.204;2022-07-23T07:11:59;7.00;;;5.30;;
49502;SDS011;35409;48.776;9.204;2022-07-23T07:14:25;7.13;;;5.07;;
49502;SDS011;35409;48.776;9.204;2022-07-23T07:16:50;6.43;;;5.82;;
49502;SDS011;35409;48.776;9.204;2022-07-23T07:19:16;6.25;;;5.65;;
49502;SDS011;35409;48.776;9.204;2022-07-23T07:21:41;8.73;;;5.90;;
49502;SDS011;35409;48.776;9.204;2022-07-23T07:24:07;11.50;;;6.15;;
49502;SDS011;35409;48.776;9.204;2022-07-23T07:26:33;9.00;;;5.82;;
49502;SDS011;35409;48.776;9.204;2022-07-23T07:28:59;6.35;;;5.07;;
49502;SDS011;35409;48.776;9.204;2022-07-23T07:31:25;5.68;;;5.15;;
49502;SDS011;35409;48.776;9.204;2022-07-23T07:33:51;7.07;;;5.60;;
49502;SDS011;35409;48.776;9.204;2022-07-23T07:36:16;7.03;;;5.47;;
49502;SDS011;35409;48.776;9.204;2022-07-23T07:38:42;8.07;;;5.93;;
49502;SDS011;35409;48.776;9.204;2022-07-23T07:41:08;8.23;;;5.60;;
49502;SDS011;35409;48.776;9.204;2022-07-23T07:43:35;9.07;;;6.65;;
49502;SDS011;35409;48.776;9.204;2022-07-23T07:46:01;9.63;;;6.30;;
49502;SDS011;35409;48.776;9.204;2022-07-23T07:48:28;8.50;;;5.68;;
49502;SDS011;35409;48.776;9.204;2022-07-23T07:50:54;7.70;;;5.60;;
49502;SDS011;35409;48.776;9.204;2022-07-23T07:53:19;7.13;;;5.70;;
49502;SDS011;35409;48.776;9.204;2022-07-23T07:55:45;8.57;;;6.15;;
49502;SDS011;35409;48.776;9.204;2022-07-23T07:58:11;6.43;;;5.82;;
49502;SDS011;35409;48.776;9.204;2022-07-23T08:00:36;7.50;;;5.88;;
49502;SDS011;35409;48.776;9.204;2022-07-23T08:03:02;6.53;;;5.68;;
49502;SDS011;35409;48.776;9.204;2022-07-23T08:05:28;5.78;;;5.22;;
49502;SDS011;35409;48.776;9.204;2022-07-23T08:07:56;6.88;;;5.32;;
49502;SDS011;35409;48.776;9.204;2022-07-23T08:10:23;5.43;;;4.60;;
49502;SDS011;35409;48.776;9.204;2022-07-23T08:12:50;5.55;;;5.00;;
49502;SDS011;35409;48.776;9.204;2022-07-23T08:15:18;8.07;;;4.95;;
49502;SDS011;35409;48.776;9.204;2022-07-23T08:17:45;5.68;;;5.05;;
49502;SDS011;35409;48.776;9.204;2022-07-23T08:20:13;6.03;;;4.80;;
49502;SDS011;35409;48.776;9.204;2022-07-23T08:22:47;5.95;;;5.20;;
49502;SDS011;35409;48.776;9.204;2022-07-23T08:25:29;4.93;;;4.47;;
49502;SDS011;35409;48.776;9.204;2022-07-23T08:27:56;7.03;;;5.15;;
49502;SDS011;35409;48.776;9.204;2022-07-23T08:30:23;5.90;;;5.40;;
49502;SDS011;35409;48.776;9.204;2022-07-23T08:32:49;5.93;;;5.30;;
49502;SDS011;35409;48.776;9.204;2022-07-23T08:35:17;5.55;;;4.95;;
49502;SDS011;35409;48.776;9.204;2022-07-23T08:37:43;7.47;;;5.57;;
49502;SDS011;35409;48.776;9.204;2022-07-23T08:40:09;5.10;;;4.60;;
49502;SDS011;35409;48.776;9.204;2022-07-23T08:42:35;5.57;;;4.90;;
49502;SDS011;35409;48.776;9.204;2022-07-23T08:45:02;6.60;;;5.38;;
49502;SDS011;35409;48.776;9.204;2022-07-23T08:47:28;5.82;;;5.22;;
49502;SDS011;35409;48.776;9.204;2022-07-23T08:49:58;5.68;;;5.18;;
49502;SDS011;35409;48.776;9.204;2022-07-23T08:52:24;6.95;;;5.07;;
49502;SDS011;35409;48.776;9.204;2022-07-23T08:54:51;8.50;;;5.60;;
49502;SDS011;35409;48.776;9.204;2022-07-23T08:57:17;4.72;;;4.32;;
49502;SDS011;35409;48.776;9.204;2022-07-23T08:59:43;5.63;;;5.07;;
49502;SDS011;35409;48.776;9.204;2022-07-23T09:02:09;4.82;;;4.40;;
49502;SDS011;35409;48.776;9.204;2022-07-23T09:04:35;6.63;;;5.95;;
49502;SDS011;35409;48.776;9.204;2022-07-23T09:07:01;5.75;;;5.25;;
49502;SDS011;35409;48.776;9.204;2022-07-23T09:09:27;5.88;;;5.28;;
49502;SDS011;35409;48.776;9.204;2022-07-23T09:12:02;5.78;;;5.28;;
49502;SDS011;35409;48.776;9.204;2022-07-23T09:14:36;5.35;;;4.85;;
49502;SDS011;35409;48.776;9.204;2022-07-23T09:17:12;6.20;;;5.32;;
49502;SDS011;35409;48.776;9.204;2022-07-23T09:19:39;7.53;;;5.07;;
49502;SDS011;35409;48.776;9.204;2022-07-23T09:22:19;6.82;;;5.05;;
49502;SDS011;35409;48.776;9.204;2022-07-23T09:27:51;5.20;;;4.68;;
49502;SDS011;35409;48.776;9.204;2022-07-23T09:30:20;6.30;;;4.90;;
49502;SDS011;35409;48.776;9.204;2022-07-23T09:33:11;4.57;;;4.28;;
49502;SDS011;35409;48.776;9.204;2022-07-23T09:35:50;6.93;;;5.07;;
49502;SDS011;35409;48.776;9.204;2022-07-23T09:38:18;7.05;;;5.00;;
49502;SDS011;35409;48.776;9.204;2022-07-23T09:40:46;5.95;;;5.35;;
49502;SDS011;35409;48.776;9.204;2022-07-23T09:43:13;5.45;;;4.95;;
49502;SDS011;35409;48.776;9.204;2022-07-23T09:45:59;5.60;;;4.97;;
49502;SDS011;35409;48.776;9.204;2022-07-23T09:48:44;6.97;;;5.20;;
49502;SDS011;35409;48.776;9.204;2022-07-23T09:51:11;5.35;;;4.85;;
49502;SDS011;35409;48.776;9.204;2022-07-23T09:53:37;5.78;;;5.20;;
49502;SDS011;35409;48.776;9.204;2022-07-23T09:56:02;11.48;;;5.50;;
49502;SDS011;35409;48.776;9.204;2022-07-23T09:58:29;5.68;;;5.15;;
49502;SDS011;35409;48.776;9.204;2022-07-23T10:00:56;6.35;;;5.22;;
49502;SDS011;35409;48.776;9.204;2022-07-23T10:03:23;9.43;;;5.65;;
49502;SDS011;35409;48.776;9.204;2022-07-23T10:05:49;6.68;;;5.25;;
49502;SDS011;35409;48.776;9.204;2022-07-23T10:08:17;5.45;;;4.93;;
49502;SDS011;35409;48.776;9.204;2022-07-23T10:10:45;5.15;;;4.75;;
49502;SDS011;35409;48.776;9.204;2022-07-23T10:13:12;5.68;;;5.00;;
49502;SDS011;35409;48.776;9.204;2022-07-23T10:15:45;6.30;;;5.80;;
49502;SDS011;35409;48.776;9.204;2022-07-23T10:18:11;5.97;;;5.22;;
49502;SDS011;35409;48.776;9.204;2022-07-23T10:20:37;6.70;;;5.30;;
49502;SDS011;35409;48.776;9.204;2022-07-23T10:31:45;6.65;;;5.18;;
49502;SDS011;35409;48.776;9.204;2022-07-23T10:37:28;5.00;;;4.60;;
49502;SDS011;35409;48.776;9.204;2022-07-23T10:40:16;5.70;;;5.20;;
49502;SDS011;35409;48.776;9.204;2022-07-23T10:42:47;6.95;;;4.55;;
49502;SDS011;35409;48.776;9.204;2022-07-23T10:45:24;5.57;;;5.07;;
49502;SDS011;35409;48.776;9.204;2022-07-23T10:47:55;5.93;;;5.20;;
49502;SDS011;35409;48.776;9.204;2022-07-23T10:50:35;5.57;;;5.07;;
49502;SDS011;35409;48.776;9.204;2022-07-23T10:53:17;6.25;;;5.28;;
49502;SDS011;35409;48.776;9.204;2022-07-23T10:55:50;6.00;;;5.45;;
49502;SDS011;35409;48.776;9.204;2022-07-23T10:58:18;5.75;;;4.72;;
49502;SDS011;35409;48.776;9.204;2022-07-23T11:00:45;5.53;;;4.90;;
49502;SDS011;35409;48.776;9.204;2022-07-23T11:05:57;4.90;;;4.50;;
49502;SDS011;35409;48.776;9.204;2022-07-23T11:08:23;5.75;;;5.10;;
49502;SDS011;35409;48.776;9.204;2022-07-23T11:10:50;6.13;;;4.80;;
49502;SDS011;35409;48.776;9.204;2022-07-23T11:13:27;5.10;;;4.65;;
49502;SDS011;35409;48.776;9.204;2022-07-23T11:16:12;5.70;;;5.20;;
49502;SDS011;35409;48.776;9.204;2022-07-23T11:23:58;4.68;;;4.35;;
49502;SDS011;35409;48.776;9.204;2022-07-23T11:26:45;5.38;;;4.93;;
49502;SDS011;35409;48.776;9.204;2022-07-23T11:34:40;7.05;;;5.32;;
49502;SDS011;35409;48.776;9.204;2022-07-23T11:37:11;5.82;;;5.32;;
49502;SDS011;35409;48.776;9.204;2022-07-23T11:39:55;5.68;;;5.10;;
49502;SDS011;35409;48.776;9.204;2022-07-23T11:42:22;4.57;;;4.28;;
49502;SDS011;35409;48.776;9.204;2022-07-23T11:44:49;6.68;;;5.07;;
49502;SDS011;35409;48.776;9.204;2022-07-23T11:47:20;5.72;;;5.25;;
49502;SDS011;35409;48.776;9.204;2022-07-23T11:49:53;6.70;;;5.35;;
49502;SDS011;35409;48.776;9.204;2022-07-23T11:52:20;5.70;;;5.20;;
49502;SDS011;35409;48.776;9.204;2022-07-23T11:54:48;6.35;;;5.50;;
49502;SDS011;35409;48.776;9.204;2022-07-23T11:57:15;6.03;;;5.20;;
49502;SDS011;35409;48.776;9.204;2022-07-23T11:59:42;6.68;;;5.03;;
49502;SDS011;35409;48.776;9.204;2022-07-23T12:02:11;8.02;;;5.43;;
49502;SDS011;35409;48.776;9.204;2022-07-23T12:04:46;8.55;;;5.22;;
49502;SDS011;35409;48.776;9.204;2022-07-23T12:07:23;5.47;;;4.95;;
49502;SDS011;35409;48.776;9.204;2022-07-23T12:09:52;6.00;;;5.50;;
49502;SDS011;35409;48.776;9.204;2022-07-23T12:12:18;5.60;;;5.10;;
49502;SDS011;35409;48.776;9.204;2022-07-23T12:14:51;6.70;;;5.72;;
49502;SDS011;35409;48.776;9.204;2022-07-23T12:17:19;5.82;;;5.32;;
49502;SDS011;35409;48.776;9.204;2022-07-23T12:19:45;7.30;;;5.93;;
49502;SDS011;35409;48.776;9.204;2022-07-23T12:22:12;5.72;;;5.15;;
49502;SDS011;35409;48.776;9.204;2022-07-23T12:24:58;5.50;;;5.00;;
49502;SDS011;35409;48.776;9.204;2022-07-23T12:27:26;7.75;;;5.15;;
49502;SDS011;35409;48.776;9.204;2022-07-23T12:29:52;6.70;;;5.82;;
49502;SDS011;35409;48.776;9.204;2022-07-23T12:34:51;6.07;;;5.53;;
49502;SDS011;35409;48.776;9.204;2022-07-23T12:37:34;6.10;;;5.38;;
49502;SDS011;35409;48.776;9.204;2022-07-23T12:42:55;5.75;;;5.25;;
49502;SDS011;35409;48.776;9.204;2022-07-23T12:45:26;5.95;;;5.35;;
49502;SDS011;35409;48.776;9.204;2022-07-23T12:47:53;8.32;;;5.32;;
49502;SDS011;35409;48.776;9.204;2022-07-23T12:50:38;5.70;;;4.97;;
49502;SDS011;35409;48.776;9.204;2022-07-23T13:03:57;7.45;;;6.15;;
49502;SDS011;35409;48.776;9.204;2022-07-23T13:06:24;6.57;;;5.53;;
49502;SDS011;35409;48.776;9.204;2022-07-23T13:08:51;6.85;;;5.70;;
49502;SDS011;35409;48.776;9.204;2022-07-23T13:11:17;6.63;;;5.88;;
49502;SDS011;35409;48.776;9.204;2022-07-23T13:13:43;6.30;;;5.70;;
49502;SDS011;35409;48.776;9.204;2022-07-23T13:16:08;6.43;;;5.75;;
49502;SDS011;35409;48.776;9.204;2022-07-23T13:18:34;5.57;;;5.07;;
49502;SDS011;35409;48.776;9.204;2022-07-23T13:21:00;5.85;;;5.35;;
49502;SDS011;35409;48.776;9.204;2022-07-23T13:23:26;6.15;;;5.47;;
49502;SDS011;35409;48.776;9.204;2022-07-23T13:25:52;6.75;;;5.35;;
49502;SDS011;35409;48.776;9.204;2022-07-23T13:28:18;6.28;;;5.68;;
49502;SDS011;35409;48.776;9.204;2022-07-23T13:30:46;7.53;;;5.63;;
49502;SDS011;35409;48.776;9.204;2022-07-23T13:33:14;6.03;;;5.43;;
49502;SDS011;35409;48.776;9.204;2022-07-23T13:35:41;5.78;;;5.28;;
49502;SDS011;35409;48.776;9.204;2022-07-23T13:38:07;6.25;;;5.30;;
49502;SDS011;35409;48.776;9.204;2022-07-23T13:40:38;6.43;;;5.82;;
49502;SDS011;35409;48.776;9.204;2022-07-23T13:43:07;6.38;;;5.80;;
49502;SDS011;35409;48.776;9.204;2022-07-23T13:45:34;5.85;;;5.30;;
49502;SDS011;35409;48.776;9.204;2022-07-23T13:48:00;8.15;;;5.82;;
49502;SDS011;35409;48.776;9.204;2022-07-23T13:50:26;7.97;;;6.25;;
49502;SDS011;35409;48.776;9.204;2022-07-23T13:52:52;6.60;;;5.97;;
49502;SDS011;35409;48.776;9.204;2022-07-23T13:55:18;7.00;;;6.30;;
49502;SDS011;35409;48.776;9.204;2022-07-23T13:57:43;7.88;;;6.03;;
49502;SDS011;35409;48.776;9.204;2022-07-23T14:00:09;6.53;;;5.93;;
49502;SDS011;35409;48.776;9.204;2022-07-23T14:02:36;7.28;;;5.75;;
49502;SDS011;35409;48.776;9.204;2022-07-23T14:05:08;6.78;;;5.82;;
49502;SDS011;35409;48.776;9.204;2022-07-23T14:07:35;7.03;;;6.15;;
49502;SDS011;35409;48.776;9.204;2022-07-23T14:10:03;7.07;;;6.38;;
49502;SDS011;35409;48.776;9.204;2022-07-23T14:12:29;7.72;;;6.43;;
49502;SDS011;35409;48.776;9.204;2022-07-23T14:14:55;6.63;;;6.00;;
49502;SDS011;35409;48.776;9.204;2022-07-23T14:17:21;7.55;;;6.78;;
49502;SDS011;35409;48.776;9.204;2022-07-23T14:19:47;8.95;;;7.05;;
49502;SDS011;35409;48.776;9.204;2022-07-23T14:22:13;6.90;;;6.20;;
49502;SDS011;35409;48.776;9.204;2022-07-23T14:24:39;6.80;;;6.13;;
49502;SDS011;35409;48.776;9.204;2022-07-23T14:27:04;7.40;;;6.07;;
49502;SDS011;35409;48.776;9.204;2022-07-23T14:29:30;6.78;;;6.18;;
49502;SDS011;35409;48.776;9.204;2022-07-23T14:31:56;7.18;;;6.47;;
49502;SDS011;35409;48.776;9.204;2022-07-23T14:34:23;5.95;;;5.45;;
49502;SDS011;35409;48.776;9.204;2022-07-23T14:36:48;7.40;;;6.03;;
49502;SDS011;35409;48.776;9.204;2022-07-23T14:39:14;6.30;;;5.80;;
49502;SDS011;35409;48.776;9.204;2022-07-23T14:41:40;6.65;;;5.93;;
49502;SDS011;35409;48.776;9.204;2022-07-23T14:44:05;8.73;;;6.53;;
49502;SDS011;35409;48.776;9.204;2022-07-23T14:46:31;6.80;;;6.15;;
49502;SDS011;35409;48.776;9.204;2022-07-23T14:48:57;8.38;;;5.95;;
49502;SDS011;35409;48.776;9.204;2022-07-23T14:51:23;7.75;;;6.35;;
49502;SDS011;35409;48.776;9.204;2022-07-23T14:53:48;8.10;;;6.10;;
49502;SDS011;35409;48.776;9.204;2022-07-23T14:56:14;7.68;;;6.50;;
49502;SDS011;35409;48.776;9.204;2022-07-23T14:58:40;6.45;;;5.80;;
49502;SDS011;35409;48.776;9.204;2022-07-23T15:01:07;7.03;;;5.90;;
49502;SDS011;35409;48.776;9.204;2022-07-23T15:03:33;6.80;;;5.78;;
49502;SDS011;35409;48.776;9.204;2022-07-23T15:05:59;7.38;;;6.10;;
49502;SDS011;35409;48.776;9.204;2022-07-23T15:08:24;7.25;;;5.47;;
49502;SDS011;35409;48.776;9.204;2022-07-23T15:10:50;7.00;;;6.32;;
49502;SDS011;35409;48.776;9.204;2022-07-23T15:13:16;6.10;;;5.50;;
49502;SDS011;35409;48.776;9.204;2022-07-23T15:15:42;7.22;;;6.38;;
49502;SDS011;35409;48.776;9.204;2022-07-23T15:18:07;6.32;;;5.57;;
49502;SDS011;35409;48.776;9.204;2022-07-23T15:20:33;6.30;;;5.80;;
49502;SDS011;35409;48.776;9.204;2022-07-23T15:22:59;7.93;;;5.57;;
49502;SDS011;35409;48.776;9.204;2022-07-23T15:25:24;5.85;;;5.32;;
49502;SDS011;35409;48.776;9.204;2022-07-23T15:27:50;5.88;;;5.35;;
49502;SDS011;35409;48.776;9.204;2022-07-23T15:30:15;11.30;;;5.90;;
49502;SDS011;35409;48.776;9.204;2022-07-23T15:32:41;7.53;;;5.68;;